Time;durP1;ratioP1;P1;durP2;ratioP2;P2;SDS_P1;SDS_P2;PMS_P1;PMS_P2;Temp;Humidity;BMP_temperature;BMP_pressure;BME280_temperature;BME280_humidity;BME280_pressure;Samples;Min_cycle;Max_cycle;Signal;HPM_P1;HPM_P2
2023/11/01 00:01:49;;;;;;;10.70;2.80;;;;;;;;;;5081897;28;20036;-64
2023/11/01 00:04:15;;;;;;;8.30;3.00;;;;;;;;;;5081863;28;20121;-61
2023/11/01 00:06:42;;;;;;;11.23;2.80;;;;;;;;;;5083415;28;20063;-65
2023/11/01 00:09:09;;;;;;;12.23;2.63;;;;;;;;;;5027996;28;20064;-61
2023/11/01 00:11:37;;;;;;;8.98;3.15;;;;;;;;;;5074911;28;20498;-60
2023/11/01 00:14:04;;;;;;;8.25;2.50;;;;;;;;;;5066951;28;20070;-62
2023/11/01 00:16:30;;;;;;;8.20;2.50;;;;;;;;;;5061556;28;20135;-64
2023/11/01 00:18:57;;;;;;;11.93;2.75;;;;;;;;;;5040745;28;20094;-60
2023/11/01 00:21:24;;;;;;;8.32;2.55;;;;;;;;;;5072760;28;20057;-60
2023/11/01 00:23:50;;;;;;;6.75;2.65;;;;;;;;;;5061772;28;20107;-64
2023/11/01 00:26:18;;;;;;;8.27;2.45;;;;;;;;;;5063033;28;20056;-59
2023/11/01 00:28:46;;;;;;;9.95;2.35;;;;;;;;;;5050332;28;20056;-63
2023/11/01 00:31:12;;;;;;;7.90;2.20;;;;;;;;;;5053578;28;20106;-62
2023/11/01 00:33:39;;;;;;;6.20;2.78;;;;;;;;;;5062139;28;20049;-63
2023/11/01 00:36:18;;;;;;;6.97;2.25;;;;;;;;;;5060514;28;20147;-64
2023/11/01 00:38:46;;;;;;;8.50;2.95;;;;;;;;;;5058609;28;20052;-63
2023/11/01 00:41:12;;;;;;;7.47;2.45;;;;;;;;;;5053589;28;20060;-62
2023/11/01 00:43:39;;;;;;;5.97;2.40;;;;;;;;;;5059747;28;20079;-63
2023/11/01 00:46:07;;;;;;;8.60;2.58;;;;;;;;;;5063575;28;20152;-63
2023/11/01 00:48:33;;;;;;;11.40;2.90;;;;;;;;;;5058000;28;20084;-64
2023/11/01 00:51:00;;;;;;;6.30;2.45;;;;;;;;;;5052494;28;20136;-62
2023/11/01 00:53:27;;;;;;;7.15;2.70;;;;;;;;;;5061027;28;20048;-60
2023/11/01 00:55:53;;;;;;;7.03;2.30;;;;;;;;;;5060101;28;20060;-61
2023/11/01 00:58:21;;;;;;;9.65;3.20;;;;;;;;;;5058469;28;20121;-63
2023/11/01 01:00:47;;;;;;;11.73;3.40;;;;;;;;;;5043378;28;20086;-62
2023/11/01 01:03:16;;;;;;;12.40;3.22;;;;;;;;;;5056579;28;20048;-60
2023/11/01 01:05:45;;;;;;;12.32;2.78;;;;;;;;;;5063672;28;20110;-63
2023/11/01 01:08:14;;;;;;;9.10;2.20;;;;;;;;;;5063579;28;20040;-61
2023/11/01 01:10:41;;;;;;;7.82;2.67;;;;;;;;;;5059172;28;20045;-60
2023/11/01 01:13:08;;;;;;;8.80;2.75;;;;;;;;;;5052832;28;20045;-60
2023/11/01 01:15:34;;;;;;;6.82;2.40;;;;;;;;;;5060425;28;20082;-60
2023/11/01 01:18:01;;;;;;;12.07;2.47;;;;;;;;;;5078168;28;20041;-63
2023/11/01 01:20:29;;;;;;;8.93;2.45;;;;;;;;;;5055464;28;20072;-62
2023/11/01 01:22:56;;;;;;;8.43;2.60;;;;;;;;;;5052147;28;20053;-62
2023/11/01 01:25:22;;;;;;;6.43;2.70;;;;;;;;;;5039742;28;20060;-64
2023/11/01 01:27:49;;;;;;;7.25;2.33;;;;;;;;;;5044750;28;20136;-64
2023/11/01 01:30:15;;;;;;;11.18;2.60;;;;;;;;;;5049067;28;20121;-63
2023/11/01 01:32:42;;;;;;;8.73;2.17;;;;;;;;;;5066068;28;20140;-65
2023/11/01 01:35:09;;;;;;;6.57;2.20;;;;;;;;;;5060910;28;20051;-60
2023/11/01 01:37:37;;;;;;;7.88;2.40;;;;;;;;;;5061574;28;20151;-63
2023/11/01 01:40:04;;;;;;;5.65;2.20;;;;;;;;;;5013750;28;20375;-64
2023/11/01 01:42:31;;;;;;;8.30;2.20;;;;;;;;;;5058256;28;20062;-60
2023/11/01 01:44:57;;;;;;;10.95;1.88;;;;;;;;;;5051087;28;20139;-61
2023/11/01 01:47:24;;;;;;;8.63;2.00;;;;;;;;;;5063891;28;20412;-63
2023/11/01 01:49:52;;;;;;;6.20;2.30;;;;;;;;;;5055582;28;20044;-60
2023/11/01 01:52:20;;;;;;;8.10;2.95;;;;;;;;;;5065525;28;20056;-62
2023/11/01 01:54:51;;;;;;;12.68;2.70;;;;;;;;;;5059490;28;20056;-62
2023/11/01 01:57:23;;;;;;;8.68;2.50;;;;;;;;;;5058749;28;20052;-61
2023/11/01 01:59:49;;;;;;;7.95;2.45;;;;;;;;;;5055825;28;20120;-63
2023/11/01 02:02:19;;;;;;;10.90;2.55;;;;;;;;;;5062824;28;20102;-60
2023/11/01 02:04:46;;;;;;;7.80;2.10;;;;;;;;;;5043038;28;20049;-62
2023/11/01 02:07:13;;;;;;;10.18;1.90;;;;;;;;;;5036850;28;20083;-62
2023/11/01 02:09:39;;;;;;;8.02;2.05;;;;;;;;;;5020151;28;20052;-61
2023/11/01 02:12:08;;;;;;;7.00;1.80;;;;;;;;;;5043009;28;20049;-62
2023/11/01 02:14:34;;;;;;;;;;;;;;;;;;5061393;28;20040;-60
2023/11/01 02:17:01;;;;;;;14.32;2.38;;;;;;;;;;5052908;28;20232;-62
2023/11/01 02:19:29;;;;;;;9.65;1.98;;;;;;;;;;5030540;28;20080;-64
2023/11/01 02:21:55;;;;;;;7.03;2.00;;;;;;;;;;5058458;28;20053;-64
2023/11/01 02:24:23;;;;;;;5.38;2.20;;;;;;;;;;5039700;28;20045;-63
2023/11/01 02:26:50;;;;;;;6.55;2.47;;;;;;;;;;5037291;28;20049;-63
2023/11/01 02:29:17;;;;;;;5.53;2.05;;;;;;;;;;5004984;28;20134;-61
2023/11/01 02:31:44;;;;;;;5.63;2.17;;;;;;;;;;5040147;28;20140;-61
2023/11/01 02:34:10;;;;;;;9.95;2.47;;;;;;;;;;5040731;28;20123;-62
2023/11/01 02:36:38;;;;;;;9.38;1.70;;;;;;;;;;5041677;28;20060;-63
2023/11/01 02:39:06;;;;;;;6.07;2.03;;;;;;;;;;5017101;28;20060;-62
2023/11/01 02:41:38;;;;;;;2.80;1.48;;;;;;;;;;5043545;28;20056;-64
2023/11/01 02:44:06;;;;;;;6.13;1.73;;;;;;;;;;5073386;28;20064;-63
2023/11/01 02:46:32;;;;;;;6.45;1.60;;;;;;;;;;5063622;28;20491;-62
2023/11/01 02:48:59;;;;;;;10.05;1.80;;;;;;;;;;5037032;28;20149;-62
2023/11/01 02:51:26;;;;;;;6.05;1.63;;;;;;;;;;5077162;28;20140;-63
2023/11/01 02:53:52;;;;;;;8.18;2.13;;;;;;;;;;5059097;28;20075;-62
2023/11/01 02:56:21;;;;;;;5.50;1.50;;;;;;;;;;5060746;28;20152;-63
2023/11/01 02:58:52;;;;;;;;;;;;;;;;;;5057290;28;20131;-64
2023/11/01 03:01:21;;;;;;;6.43;1.58;;;;;;;;;;5032409;28;20065;-63
2023/11/01 03:03:49;;;;;;;5.97;1.52;;;;;;;;;;5066549;28;20060;-63
2023/11/01 03:06:16;;;;;;;5.25;2.08;;;;;;;;;;5056099;28;20133;-64
2023/11/01 03:08:44;;;;;;;4.57;1.45;;;;;;;;;;5057322;28;20048;-64
2023/11/01 03:11:11;;;;;;;3.28;1.40;;;;;;;;;;5042544;28;20059;-64
2023/11/01 03:13:38;;;;;;;5.32;1.42;;;;;;;;;;5053903;28;20140;-65
2023/11/01 03:16:07;;;;;;;9.43;1.92;;;;;;;;;;5047253;28;20413;-61
2023/11/01 03:18:33;;;;;;;7.97;1.67;;;;;;;;;;5044332;28;20056;-64
2023/11/01 03:21:00;;;;;;;3.92;1.50;;;;;;;;;;5030166;28;20052;-62
2023/11/01 03:23:26;;;;;;;8.90;1.98;;;;;;;;;;5039500;28;20117;-62
2023/11/01 03:25:53;;;;;;;7.07;1.60;;;;;;;;;;5029103;28;20301;-61
2023/11/01 03:28:20;;;;;;;3.88;1.73;;;;;;;;;;5036110;28;20096;-59
2023/11/01 03:30:46;;;;;;;5.68;1.50;;;;;;;;;;5037871;28;20088;-63
2023/11/01 03:33:14;;;;;;;4.80;1.90;;;;;;;;;;5022410;28;20140;-61
2023/11/01 03:35:44;;;;;;;3.58;1.30;;;;;;;;;;5041340;28;20067;-60
2023/11/01 03:38:11;;;;;;;6.65;1.30;;;;;;;;;;5068961;28;20283;-61
2023/11/01 03:40:37;;;;;;;5.68;1.30;;;;;;;;;;5056897;28;20155;-60
2023/11/01 03:43:04;;;;;;;6.57;1.65;;;;;;;;;;5033751;28;20049;-62
2023/11/01 03:45:31;;;;;;;5.65;1.60;;;;;;;;;;5055500;28;20143;-62
2023/11/01 03:47:58;;;;;;;5.00;1.48;;;;;;;;;;5057615;28;20060;-63
2023/11/01 03:50:27;;;;;;;8.02;1.55;;;;;;;;;;5058113;28;20160;-63
2023/11/01 03:52:54;;;;;;;11.10;1.73;;;;;;;;;;5055439;28;20080;-62
2023/11/01 03:55:20;;;;;;;7.95;1.70;;;;;;;;;;5062222;28;20139;-64
2023/11/01 03:57:47;;;;;;;3.67;1.52;;;;;;;;;;5052701;28;20046;-66
2023/11/01 04:00:20;;;;;;;7.07;1.60;;;;;;;;;;5058982;28;20060;-66
2023/11/01 04:02:49;;;;;;;5.72;1.30;;;;;;;;;;5057298;28;20110;-62
2023/11/01 04:05:16;;;;;;;;;;;;;;;;;;5059754;28;20053;-62
2023/11/01 04:07:47;;;;;;;5.75;1.38;;;;;;;;;;5054550;28;19924;-65
2023/11/01 04:10:14;;;;;;;3.88;1.35;;;;;;;;;;5057839;28;20092;-63
2023/11/01 04:12:40;;;;;;;9.57;1.88;;;;;;;;;;5053119;28;20063;-61
2023/11/01 04:15:10;;;;;;;6.25;1.27;;;;;;;;;;5058438;28;20142;-60
2023/11/01 04:17:37;;;;;;;6.28;1.60;;;;;;;;;;5042188;28;20076;-59
2023/11/01 04:20:05;;;;;;;2.63;1.20;;;;;;;;;;5033768;28;20049;-62
2023/11/01 04:22:32;;;;;;;4.25;1.10;;;;;;;;;;5042233;28;20056;-65
2023/11/01 04:25:00;;;;;;;4.28;1.58;;;;;;;;;;5058516;28;20208;-65
2023/11/01 04:27:27;;;;;;;3.58;1.30;;;;;;;;;;5058251;28;20312;-62
2023/11/01 04:29:54;;;;;;;2.80;1.33;;;;;;;;;;5039682;28;20045;-63
2023/11/01 04:32:21;;;;;;;3.75;1.20;;;;;;;;;;5020138;28;20134;-65
2023/11/01 04:34:49;;;;;;;2.85;1.23;;;;;;;;;;5059455;28;20068;-63
2023/11/01 04:37:16;;;;;;;5.43;1.30;;;;;;;;;;5059756;28;20048;-61
2023/11/01 04:39:46;;;;;;;3.85;1.35;;;;;;;;;;5056139;28;20052;-64
2023/11/01 04:42:16;;;;;;;3.42;1.05;;;;;;;;;;5032163;28;20059;-65
2023/11/01 04:44:44;;;;;;;3.72;1.20;;;;;;;;;;5045817;28;20052;-61
2023/11/01 04:47:11;;;;;;;2.70;0.90;;;;;;;;;;5057925;28;20233;-62
2023/11/01 04:49:38;;;;;;;2.40;1.25;;;;;;;;;;5056249;28;20326;-65
2023/11/01 04:52:06;;;;;;;2.53;1.10;;;;;;;;;;5048058;28;20049;-60
2023/11/01 04:54:33;;;;;;;2.17;1.13;;;;;;;;;;5060024;28;20040;-62
2023/11/01 04:57:00;;;;;;;1.65;1.00;;;;;;;;;;5058331;28;20243;-63
2023/11/01 04:59:29;;;;;;;2.30;1.20;;;;;;;;;;5059185;28;20059;-61
2023/11/01 05:01:55;;;;;;;2.90;1.27;;;;;;;;;;5036818;28;20172;-64
2023/11/01 05:04:22;;;;;;;2.55;1.15;;;;;;;;;;5057361;28;20052;-59
2023/11/01 05:06:48;;;;;;;3.90;1.45;;;;;;;;;;5056847;28;20166;-60
2023/11/01 05:09:15;;;;;;;5.97;1.77;;;;;;;;;;5058936;28;20106;-64
2023/11/01 05:11:42;;;;;;;3.10;1.60;;;;;;;;;;5044938;28;20054;-61
2023/11/01 05:14:09;;;;;;;2.75;1.48;;;;;;;;;;5057076;28;20151;-62
2023/11/01 05:16:37;;;;;;;2.58;1.40;;;;;;;;;;5056821;28;20044;-65
2023/11/01 05:19:08;;;;;;;3.13;1.27;;;;;;;;;;5058870;28;20060;-62
2023/11/01 05:21:35;;;;;;;3.15;1.48;;;;;;;;;;5050253;28;20135;-65
2023/11/01 05:24:01;;;;;;;2.22;1.30;;;;;;;;;;5032942;28;20142;-64
2023/11/01 05:26:29;;;;;;;5.70;1.65;;;;;;;;;;5037083;28;20060;-62
2023/11/01 05:28:56;;;;;;;1.65;1.08;;;;;;;;;;5038689;28;20102;-61
2023/11/01 05:31:22;;;;;;;4.00;1.48;;;;;;;;;;5031763;28;20235;-66
2023/11/01 05:33:51;;;;;;;1.83;1.27;;;;;;;;;;5030739;28;20110;-63
2023/11/01 05:36:17;;;;;;;4.00;1.38;;;;;;;;;;5037508;28;20147;-60
2023/11/01 05:38:44;;;;;;;4.03;1.48;;;;;;;;;;5037994;28;20073;-62
2023/11/01 05:41:11;;;;;;;3.90;1.55;;;;;;;;;;5033544;28;20041;-67
2023/11/01 05:43:37;;;;;;;2.83;1.45;;;;;;;;;;5044892;28;20124;-62
2023/11/01 05:46:05;;;;;;;5.35;1.40;;;;;;;;;;5053329;28;20052;-62
2023/11/01 05:48:34;;;;;;;3.97;1.33;;;;;;;;;;5058520;28;20056;-64
2023/11/01 05:51:03;;;;;;;12.15;2.35;;;;;;;;;;5044724;28;20060;-64
2023/11/01 05:53:31;;;;;;;7.05;2.03;;;;;;;;;;5054679;28;20084;-63
2023/11/01 05:55:59;;;;;;;3.65;1.75;;;;;;;;;;5035936;28;20353;-65
2023/11/01 05:58:26;;;;;;;6.15;1.77;;;;;;;;;;5037774;28;20049;-62
2023/11/01 06:00:54;;;;;;;7.20;2.28;;;;;;;;;;5049886;28;20060;-62
2023/11/01 06:03:20;;;;;;;5.72;2.03;;;;;;;;;;5051277;28;20060;-64
2023/11/01 06:05:47;;;;;;;4.15;1.40;;;;;;;;;;5066080;28;20144;-62
2023/11/01 06:08:15;;;;;;;7.82;1.65;;;;;;;;;;5055065;28;20072;-63
2023/11/01 06:10:43;;;;;;;5.50;1.90;;;;;;;;;;5055342;28;20231;-61
2023/11/01 06:13:10;;;;;;;4.70;1.63;;;;;;;;;;5051121;28;20135;-64
2023/11/01 06:15:37;;;;;;;6.65;1.85;;;;;;;;;;5054079;28;20052;-62
2023/11/01 06:18:05;;;;;;;3.70;1.50;;;;;;;;;;5050501;28;20147;-62
2023/11/01 06:20:32;;;;;;;3.83;1.80;;;;;;;;;;5055298;28;20044;-62
2023/11/01 06:22:58;;;;;;;9.10;2.10;;;;;;;;;;5050675;28;20053;-63
2023/11/01 06:25:27;;;;;;;7.15;1.67;;;;;;;;;;5055855;28;20048;-61
2023/11/01 06:27:54;;;;;;;9.63;2.47;;;;;;;;;;5047875;28;20128;-64
2023/11/01 06:30:21;;;;;;;6.30;1.77;;;;;;;;;;5051630;28;20211;-63
2023/11/01 06:32:50;;;;;;;6.20;1.98;;;;;;;;;;5030652;28;20052;-61
2023/11/01 06:35:17;;;;;;;8.25;1.83;;;;;;;;;;5055475;28;20118;-63
2023/11/01 06:37:46;;;;;;;8.20;1.65;;;;;;;;;;5047241;28;20052;-64
2023/11/01 06:40:14;;;;;;;8.57;1.48;;;;;;;;;;5054869;28;20045;-62
2023/11/01 06:42:44;;;;;;;10.60;1.45;;;;;;;;;;5038545;28;20053;-69
2023/11/01 06:45:12;;;;;;;8.68;1.80;;;;;;;;;;5035796;28;20055;-62
2023/11/01 06:47:40;;;;;;;12.88;3.08;;;;;;;;;;5035866;28;20136;-61
2023/11/01 06:50:08;;;;;;;11.27;2.72;;;;;;;;;;5031827;28;20121;-65
2023/11/01 06:52:35;;;;;;;5.38;1.42;;;;;;;;;;5032966;28;20049;-63
2023/11/01 06:55:01;;;;;;;8.80;1.50;;;;;;;;;;5040498;28;20080;-68
2023/11/01 06:57:28;;;;;;;13.65;3.83;;;;;;;;;;5038277;28;20442;-62
2023/11/01 06:59:56;;;;;;;14.15;4.55;;;;;;;;;;5045905;28;20088;-66
2023/11/01 07:02:23;;;;;;;7.03;1.63;;;;;;;;;;5039802;28;20040;-72
2023/11/01 07:04:50;;;;;;;7.07;2.05;;;;;;;;;;5068184;28;20652;-70
2023/11/01 07:07:16;;;;;;;8.77;2.22;;;;;;;;;;5056526;28;20114;-65
2023/11/01 07:09:46;;;;;;;7.97;1.52;;;;;;;;;;5046350;28;20167;-67
2023/11/01 07:12:13;;;;;;;10.45;2.80;;;;;;;;;;5041346;28;20053;-63
2023/11/01 07:14:40;;;;;;;7.05;1.80;;;;;;;;;;5058710;28;20124;-64
2023/11/01 07:17:08;;;;;;;10.00;1.40;;;;;;;;;;5055799;28;20164;-68
2023/11/01 07:19:36;;;;;;;9.98;1.33;;;;;;;;;;5055408;28;20114;-65
2023/11/01 07:22:03;;;;;;;;;;;;;;;;;;5007851;28;20127;-62
2023/11/01 07:24:30;;;;;;;7.30;1.55;;;;;;;;;;5057676;28;19973;-63
2023/11/01 07:26:57;;;;;;;6.78;1.52;;;;;;;;;;5061281;28;20059;-67
2023/11/01 07:29:23;;;;;;;13.68;1.58;;;;;;;;;;5059809;28;20049;-64
2023/11/01 07:31:50;;;;;;;14.40;2.28;;;;;;;;;;5039066;28;20121;-65
2023/11/01 07:34:18;;;;;;;5.80;1.88;;;;;;;;;;5058656;28;20086;-62
2023/11/01 07:36:45;;;;;;;9.70;2.10;;;;;;;;;;5060224;28;20131;-66
2023/11/01 07:39:12;;;;;;;7.47;1.73;;;;;;;;;;5056985;28;20072;-63
2023/11/01 07:41:50;;;;;;;5.85;1.60;;;;;;;;;;5042756;28;20082;-67
2023/11/01 07:44:22;;;;;;;9.88;1.40;;;;;;;;;;5056084;28;20185;-66
2023/11/01 07:46:52;;;;;;;10.50;1.70;;;;;;;;;;5055364;28;20064;-61
2023/11/01 07:49:20;;;;;;;4.45;1.65;;;;;;;;;;5060658;28;20052;-63
2023/11/01 07:51:48;;;;;;;13.52;1.70;;;;;;;;;;5052847;28;20142;-65
2023/11/01 07:54:15;;;;;;;8.98;1.42;;;;;;;;;;5055583;28;20056;-63
2023/11/01 07:56:42;;;;;;;5.07;1.33;;;;;;;;;;5058390;28;20059;-63
2023/11/01 07:59:09;;;;;;;6.35;1.48;;;;;;;;;;5062849;28;20060;-64
2023/11/01 08:01:36;;;;;;;3.90;1.23;;;;;;;;;;5007192;28;20155;-65
2023/11/01 08:04:03;;;;;;;6.13;1.23;;;;;;;;;;5067290;28;20056;-66
2023/11/01 08:06:32;;;;;;;5.85;1.40;;;;;;;;;;5060424;28;20055;-65
2023/11/01 08:08:58;;;;;;;9.65;1.60;;;;;;;;;;5057542;28;20120;-63
2023/11/01 08:11:25;;;;;;;8.70;1.40;;;;;;;;;;5046540;28;20067;-63
2023/11/01 08:13:54;;;;;;;9.85;1.65;;;;;;;;;;5037842;28;20049;-63
2023/11/01 08:16:22;;;;;;;;;;;;;;;;;;5047385;28;20055;-67
2023/11/01 08:18:49;;;;;;;;;;;;;;;;;;5059973;28;19924;-64
2023/11/01 08:21:17;;;;;;;4.35;1.17;;;;;;;;;;5069504;28;20015;-65
2023/11/01 08:23:45;;;;;;;5.90;1.80;;;;;;;;;;5048969;28;20074;-61
2023/11/01 08:26:19;;;;;;;6.22;1.30;;;;;;;;;;5059878;28;20052;-68
2023/11/01 08:28:45;;;;;;;14.60;3.67;;;;;;;;;;5057011;28;20164;-60
2023/11/01 08:31:12;;;;;;;7.47;1.40;;;;;;;;;;5056631;28;20048;-62
2023/11/01 08:33:40;;;;;;;10.77;1.70;;;;;;;;;;5013821;28;20124;-63
2023/11/01 08:36:07;;;;;;;10.07;1.65;;;;;;;;;;5056310;28;20076;-61
2023/11/01 08:38:34;;;;;;;4.40;1.20;;;;;;;;;;5061095;28;20052;-63
2023/11/01 08:41:02;;;;;;;14.93;2.10;;;;;;;;;;5057962;28;20067;-63
2023/11/01 08:43:29;;;;;;;9.80;1.58;;;;;;;;;;4991262;28;20159;-67
2023/11/01 08:45:55;;;;;;;8.15;1.60;;;;;;;;;;5067775;28;20040;-63
2023/11/01 08:48:22;;;;;;;13.65;1.90;;;;;;;;;;5063132;28;20053;-64
2023/11/01 08:50:52;;;;;;;8.95;1.52;;;;;;;;;;5055601;28;20102;-64
2023/11/01 08:53:21;;;;;;;6.93;1.50;;;;;;;;;;5042947;28;20117;-64
2023/11/01 08:55:48;;;;;;;4.72;1.30;;;;;;;;;;5054148;28;20058;-66
2023/11/01 08:58:16;;;;;;;14.48;1.73;;;;;;;;;;5057211;28;20114;-65
2023/11/01 09:00:43;;;;;;;8.07;1.33;;;;;;;;;;5057995;28;20129;-62
2023/11/01 09:03:11;;;;;;;8.48;1.42;;;;;;;;;;5059069;28;20052;-62
2023/11/01 09:05:37;;;;;;;8.80;1.37;;;;;;;;;;5054089;28;20056;-62
2023/11/01 09:08:04;;;;;;;6.68;1.02;;;;;;;;;;5056818;28;20322;-63
2023/11/01 09:10:31;;;;;;;9.32;1.45;;;;;;;;;;5059293;28;20064;-65
2023/11/01 09:12:58;;;;;;;8.95;1.42;;;;;;;;;;4987625;28;20106;-65
2023/11/01 09:15:26;;;;;;;10.25;1.50;;;;;;;;;;5044019;28;20079;-64
2023/11/01 09:17:53;;;;;;;4.00;1.23;;;;;;;;;;5045329;28;20126;-67
2023/11/01 09:20:20;;;;;;;4.95;1.25;;;;;;;;;;5052069;28;20140;-65
2023/11/01 09:22:47;;;;;;;5.82;1.60;;;;;;;;;;5006383;28;20290;-64
2023/11/01 09:25:14;;;;;;;13.70;1.88;;;;;;;;;;5049640;28;20141;-63
2023/11/01 09:27:41;;;;;;;16.35;1.58;;;;;;;;;;5032675;28;20061;-62
2023/11/01 09:30:10;;;;;;;3.92;1.00;;;;;;;;;;5028102;28;20060;-61
2023/11/01 09:32:45;;;;;;;11.35;1.45;;;;;;;;;;5015188;28;20052;-63
2023/11/01 09:35:16;;;;;;;7.55;1.15;;;;;;;;;;5061046;28;20052;-65
2023/11/01 09:37:43;;;;;;;3.42;1.17;;;;;;;;;;5030058;28;20153;-64
2023/11/01 09:40:11;;;;;;;7.88;1.40;;;;;;;;;;5037068;28;20060;-63
2023/11/01 09:42:39;;;;;;;6.43;1.30;;;;;;;;;;5032427;28;20069;-60
2023/11/01 09:45:10;;;;;;;7.65;1.48;;;;;;;;;;5036512;28;20062;-64
2023/11/01 09:47:37;;;;;;;7.60;1.42;;;;;;;;;;5049414;28;20059;-63
2023/11/01 09:50:07;;;;;;;8.63;1.70;;;;;;;;;;5047169;28;20080;-65
2023/11/01 09:52:35;;;;;;;7.30;1.60;;;;;;;;;;5043300;28;20494;-63
2023/11/01 09:55:02;;;;;;;9.23;1.58;;;;;;;;;;5067809;28;20132;-63
2023/11/01 09:57:30;;;;;;;7.15;1.33;;;;;;;;;;5055500;28;20063;-61
2023/11/01 09:59:58;;;;;;;6.57;1.40;;;;;;;;;;5051226;28;20483;-65
2023/11/01 10:02:25;;;;;;;12.35;1.67;;;;;;;;;;5046824;28;20052;-64
2023/11/01 10:04:52;;;;;;;5.80;1.50;;;;;;;;;;5051349;28;20048;-67
2023/11/01 10:07:20;;;;;;;9.45;1.33;;;;;;;;;;5054223;28;20137;-62
2023/11/01 10:09:47;;;;;;;15.00;3.65;;;;;;;;;;5043464;28;20148;-66
2023/11/01 10:12:16;;;;;;;9.18;1.20;;;;;;;;;;5046329;28;20063;-62
2023/11/01 10:14:43;;;;;;;6.80;1.13;;;;;;;;;;5051638;28;20140;-63
2023/11/01 10:17:10;;;;;;;5.00;1.30;;;;;;;;;;5054674;28;20068;-66
2023/11/01 10:19:37;;;;;;;11.30;1.30;;;;;;;;;;5049225;28;20143;-65
2023/11/01 10:22:04;;;;;;;6.57;1.17;;;;;;;;;;4990849;28;20048;-63
2023/11/01 10:24:35;;;;;;;5.65;1.08;;;;;;;;;;5035774;28;20076;-62
2023/11/01 10:27:03;;;;;;;6.22;1.27;;;;;;;;;;5052073;28;20052;-66
2023/11/01 10:29:30;;;;;;;6.30;1.00;;;;;;;;;;5052891;28;20063;-61
2023/11/01 10:32:00;;;;;;;6.90;1.10;;;;;;;;;;5027657;28;21195;-64
2023/11/01 10:34:28;;;;;;;7.13;1.42;;;;;;;;;;5055642;28;20167;-61
2023/11/01 10:36:56;;;;;;;6.20;1.00;;;;;;;;;;5050467;28;20056;-64
2023/11/01 10:39:23;;;;;;;3.45;0.90;;;;;;;;;;5053507;28;20071;-64
2023/11/01 10:41:53;;;;;;;6.35;1.02;;;;;;;;;;5036233;28;20160;-62
2023/11/01 10:44:21;;;;;;;5.18;1.02;;;;;;;;;;5048604;28;20060;-59
2023/11/01 10:46:49;;;;;;;9.75;1.30;;;;;;;;;;5049371;28;20141;-66
2023/11/01 10:49:17;;;;;;;6.38;0.98;;;;;;;;;;5031599;28;20075;-65
2023/11/01 10:51:44;;;;;;;3.15;0.82;;;;;;;;;;5032617;28;20145;-63
2023/11/01 10:54:12;;;;;;;13.55;1.63;;;;;;;;;;5056242;28;20079;-64
2023/11/01 10:56:39;;;;;;;6.13;1.30;;;;;;;;;;5052043;28;20239;-66
2023/11/01 10:59:13;;;;;;;3.35;0.88;;;;;;;;;;5052482;28;20140;-63
2023/11/01 11:01:47;;;;;;;6.07;1.35;;;;;;;;;;5048170;28;20076;-62
2023/11/01 11:04:26;;;;;;;5.90;1.40;;;;;;;;;;5049152;28;20088;-63
2023/11/01 11:06:56;;;;;;;;;;;;;;;;;;5056177;28;20040;-64
2023/11/01 11:09:27;;;;;;;4.97;1.00;;;;;;;;;;5067883;28;19974;-63
2023/11/01 11:12:14;;;;;;;10.45;1.35;;;;;;;;;;5023712;28;20048;-65
2023/11/01 11:14:43;;;;;;;3.30;0.85;;;;;;;;;;5042754;28;20072;-65
2023/11/01 11:17:15;;;;;;;5.65;1.20;;;;;;;;;;5056923;28;20075;-65
2023/11/01 11:20:04;;;;;;;;;;;;;;;;;;5048389;28;20052;-61
2023/11/01 11:23:08;;;;;;;9.27;1.58;;;;;;;;;;5058311;28;20977;-62
2023/11/01 11:25:51;;;;;;;10.07;1.15;;;;;;;;;;5039209;28;20061;-62
2023/11/01 11:28:47;;;;;;;5.75;1.38;;;;;;;;;;5045635;28;20082;-66
2023/11/01 11:31:23;;;;;;;6.15;1.27;;;;;;;;;;5050858;28;20167;-62
2023/11/01 11:34:16;;;;;;;8.05;1.20;;;;;;;;;;5040957;28;20371;-61
2023/11/01 11:37:11;;;;;;;7.40;1.60;;;;;;;;;;5050560;28;20056;-66
2023/11/01 11:40:07;;;;;;;5.95;1.15;;;;;;;;;;5050916;28;20098;-63
2023/11/01 11:42:49;;;;;;;4.15;0.88;;;;;;;;;;5061970;28;20509;-63
2023/11/01 11:45:31;;;;;;;10.82;2.08;;;;;;;;;;5050783;28;20059;-64
2023/11/01 11:48:23;;;;;;;5.95;1.10;;;;;;;;;;5046859;28;20068;-60
2023/11/01 11:50:51;;;;;;;9.55;1.10;;;;;;;;;;5051099;28;20138;-64
2023/11/01 11:53:17;;;;;;;6.47;1.02;;;;;;;;;;5030611;28;20056;-62
2023/11/01 11:55:48;;;;;;;11.65;0.98;;;;;;;;;;5051869;28;20036;-61
2023/11/01 11:58:15;;;;;;;8.68;1.13;;;;;;;;;;5050091;28;20053;-65
2023/11/01 12:00:48;;;;;;;4.45;1.08;;;;;;;;;;5052153;28;20052;-65
2023/11/01 12:03:24;;;;;;;1.00;0.63;;;;;;;;;;5029600;28;20059;-65
2023/11/01 12:05:59;;;;;;;7.95;1.27;;;;;;;;;;5047723;28;20135;-62
2023/11/01 12:08:41;;;;;;;11.40;1.30;;;;;;;;;;5052543;28;20147;-64
2023/11/01 12:11:09;;;;;;;5.75;1.13;;;;;;;;;;5054622;28;20110;-64
2023/11/01 12:13:47;;;;;;;11.15;1.30;;;;;;;;;;5031233;28;20052;-63
2023/11/01 12:16:29;;;;;;;9.02;1.67;;;;;;;;;;5056814;28;20052;-64
2023/11/01 12:19:12;;;;;;;5.95;1.45;;;;;;;;;;5053127;28;20057;-61
2023/11/01 12:21:43;;;;;;;10.77;1.50;;;;;;;;;;5041202;28;20149;-60
2023/11/01 12:24:10;;;;;;;8.52;1.50;;;;;;;;;;5051634;28;20060;-62
2023/11/01 12:26:59;;;;;;;8.88;1.17;;;;;;;;;;5051727;28;20060;-62
2023/11/01 12:29:38;;;;;;;5.32;1.13;;;;;;;;;;5033841;28;20064;-66
2023/11/01 12:32:07;;;;;;;3.80;1.05;;;;;;;;;;5012962;28;20080;-60
2023/11/01 12:34:36;;;;;;;6.15;1.13;;;;;;;;;;5053686;28;20060;-65
2023/11/01 12:37:05;;;;;;;8.55;1.33;;;;;;;;;;5053705;28;20153;-64
2023/11/01 12:39:35;;;;;;;;;;;;;;;;;;5058009;28;20129;-61
2023/11/01 12:42:22;;;;;;;2.38;0.73;;;;;;;;;;5010568;28;19952;-65
2023/11/01 12:44:49;;;;;;;12.07;1.13;;;;;;;;;;5056806;28;20048;-66
2023/11/01 12:47:16;;;;;;;7.85;1.05;;;;;;;;;;5040103;28;20076;-64
2023/11/01 12:49:49;;;;;;;3.38;0.88;;;;;;;;;;5052836;28;20099;-63
2023/11/01 12:52:19;;;;;;;5.13;0.80;;;;;;;;;;5023123;28;20054;-60
2023/11/01 12:54:47;;;;;;;3.42;0.65;;;;;;;;;;5059911;28;20068;-64
2023/11/01 12:57:14;;;;;;;5.70;0.80;;;;;;;;;;5071061;28;20052;-66
2023/11/01 12:59:44;;;;;;;5.15;1.10;;;;;;;;;;5053571;28;20311;-61
2023/11/01 13:02:13;;;;;;;3.20;1.08;;;;;;;;;;5047297;28;20044;-64
2023/11/01 13:04:42;;;;;;;6.68;1.13;;;;;;;;;;5049616;28;20126;-63
2023/11/01 13:07:10;;;;;;;7.65;1.08;;;;;;;;;;5059006;28;20117;-65
2023/11/01 13:09:38;;;;;;;;;;;;;;;;;;5044829;28;20143;-66
2023/11/01 13:12:05;;;;;;;5.50;0.93;;;;;;;;;;5040110;28;19943;-64
2023/11/01 13:14:32;;;;;;;7.07;0.80;;;;;;;;;;5046584;28;20074;-61
2023/11/01 13:17:02;;;;;;;2.80;0.85;;;;;;;;;;5055371;28;20147;-68
2023/11/01 13:19:29;;;;;;;6.50;0.90;;;;;;;;;;5058855;28;20091;-61
2023/11/01 13:21:55;;;;;;;2.97;0.80;;;;;;;;;;5041179;28;20048;-61
2023/11/01 13:24:23;;;;;;;4.43;0.90;;;;;;;;;;5020859;28;20140;-63
2023/11/01 13:26:51;;;;;;;3.05;0.80;;;;;;;;;;5038404;28;20118;-62
2023/11/01 13:29:17;;;;;;;5.50;0.85;;;;;;;;;;5037174;28;20060;-63
2023/11/01 13:31:44;;;;;;;11.45;1.00;;;;;;;;;;5034444;28;20387;-66
2023/11/01 13:34:13;;;;;;;4.07;0.90;;;;;;;;;;5045500;28;20056;-65
2023/11/01 13:36:39;;;;;;;2.22;0.70;;;;;;;;;;5073679;28;20678;-63
2023/11/01 13:39:07;;;;;;;5.53;0.90;;;;;;;;;;5072750;28;20068;-64
2023/11/01 13:41:35;;;;;;;2.80;0.95;;;;;;;;;;5054367;28;20069;-66
2023/11/01 13:44:01;;;;;;;7.75;1.00;;;;;;;;;;5050832;28;20060;-61
2023/11/01 13:46:28;;;;;;;5.13;1.30;;;;;;;;;;5036833;28;20060;-64
2023/11/01 13:48:56;;;;;;;3.35;0.90;;;;;;;;;;5048682;28;20048;-62
2023/11/01 13:51:23;;;;;;;6.57;1.10;;;;;;;;;;5048254;28;20143;-63
2023/11/01 13:53:50;;;;;;;4.55;0.73;;;;;;;;;;5042492;28;20060;-64
2023/11/01 13:56:17;;;;;;;7.93;1.17;;;;;;;;;;5056509;28;20094;-63
2023/11/01 13:58:50;;;;;;;2.58;0.80;;;;;;;;;;5055473;28;20048;-61
2023/11/01 14:01:18;;;;;;;4.00;1.00;;;;;;;;;;5055779;28;20955;-63
2023/11/01 14:03:49;;;;;;;3.28;0.80;;;;;;;;;;5029572;28;20081;-61
2023/11/01 14:06:20;;;;;;;4.72;1.00;;;;;;;;;;5042792;28;20084;-63
2023/11/01 14:08:47;;;;;;;5.70;1.02;;;;;;;;;;5047978;28;20088;-64
2023/11/01 14:11:16;;;;;;;5.43;1.05;;;;;;;;;;5052563;28;20064;-61
2023/11/01 14:13:49;;;;;;;7.57;1.02;;;;;;;;;;5013865;28;20056;-61
2023/11/01 14:16:16;;;;;;;4.30;1.08;;;;;;;;;;5038984;28;20088;-64
2023/11/01 14:18:47;;;;;;;5.35;0.98;;;;;;;;;;5046250;28;20052;-65
2023/11/01 14:21:15;;;;;;;5.68;1.00;;;;;;;;;;5059552;28;20047;-64
2023/11/01 14:23:45;;;;;;;4.90;1.33;;;;;;;;;;5002017;28;20056;-63
2023/11/01 14:26:11;;;;;;;3.33;0.88;;;;;;;;;;5055479;28;20056;-64
2023/11/01 14:28:38;;;;;;;5.20;1.10;;;;;;;;;;5057158;28;20051;-64
2023/11/01 14:31:06;;;;;;;2.97;0.90;;;;;;;;;;5058005;28;20064;-62
2023/11/01 14:33:34;;;;;;;3.33;1.00;;;;;;;;;;5034592;28;20069;-66
2023/11/01 14:36:01;;;;;;;6.88;1.13;;;;;;;;;;5046456;28;20064;-64
2023/11/01 14:38:28;;;;;;;6.68;1.20;;;;;;;;;;5055718;28;20131;-63
2023/11/01 14:40:55;;;;;;;3.53;0.77;;;;;;;;;;5040415;28;20071;-64
2023/11/01 14:43:23;;;;;;;8.07;1.13;;;;;;;;;;5031980;28;20048;-62
2023/11/01 14:45:50;;;;;;;4.13;0.90;;;;;;;;;;5046756;28;20048;-64
2023/11/01 14:48:18;;;;;;;6.40;0.82;;;;;;;;;;5054317;28;20048;-62
2023/11/01 14:50:45;;;;;;;3.25;0.77;;;;;;;;;;5052937;28;20059;-62
2023/11/01 14:53:11;;;;;;;5.53;1.27;;;;;;;;;;5040175;28;20056;-59